sensor_id;sensor_type;location;lat;lon;timestamp;P1;durP1;ratioP1;P2;durP2;ratioP2
78561;SDS011;68963;52.138;5.446;2023-08-24T00:01:28;11.50;;;6.05;;
78561;SDS011;68963;52.138;5.446;2023-08-24T00:03:54;12.30;;;6.07;;
78561;SDS011;68963;52.138;5.446;2023-08-24T00:06:21;12.73;;;6.18;;
78561;SDS011;68963;52.138;5.446;2023-08-24T00:08:47;10.88;;;6.05;;
78561;SDS011;68963;52.138;5.446;2023-08-24T00:11:14;11.07;;;6.18;;
78561;SDS011;68963;52.138;5.446;2023-08-24T00:13:42;11.65;;;5.47;;
78561;SDS011;68963;52.138;5.446;2023-08-24T00:16:18;9.38;;;6.13;;
78561;SDS011;68963;52.138;5.446;2023-08-24T00:18:46;12.65;;;6.55;;
78561;SDS011;68963;52.138;5.446;2023-08-24T00:21:13;13.70;;;6.70;;
78561;SDS011;68963;52.138;5.446;2023-08-24T00:23:43;10.60;;;5.80;;
78561;SDS011;68963;52.138;5.446;2023-08-24T00:26:10;11.57;;;6.20;;
78561;SDS011;68963;52.138;5.446;2023-08-24T00:28:37;11.90;;;6.25;;
78561;SDS011;68963;52.138;5.446;2023-08-24T00:31:03;11.60;;;6.25;;
78561;SDS011;68963;52.138;5.446;2023-08-24T00:33:30;12.73;;;5.90;;
78561;SDS011;68963;52.138;5.446;2023-08-24T00:36:02;13.68;;;6.10;;
78561;SDS011;68963;52.138;5.446;2023-08-24T00:38:31;11.82;;;5.80;;
78561;SDS011;68963;52.138;5.446;2023-08-24T00:40:58;10.63;;;5.75;;
78561;SDS011;68963;52.138;5.446;2023-08-24T00:43:25;10.43;;;5.75;;
78561;SDS011;68963;52.138;5.446;2023-08-24T00:45:53;11.38;;;5.75;;
78561;SDS011;68963;52.138;5.446;2023-08-24T00:48:22;11.13;;;6.05;;
78561;SDS011;68963;52.138;5.446;2023-08-24T00:50:55;10.52;;;5.82;;
78561;SDS011;68963;52.138;5.446;2023-08-24T00:53:23;10.68;;;5.32;;
78561;SDS011;68963;52.138;5.446;2023-08-24T00:55:52;10.40;;;5.82;;
78561;SDS011;68963;52.138;5.446;2023-08-24T00:58:19;11.23;;;5.70;;
78561;SDS011;68963;52.138;5.446;2023-08-24T01:00:47;10.18;;;5.75;;
78561;SDS011;68963;52.138;5.446;2023-08-24T01:03:21;11.48;;;5.95;;
78561;SDS011;68963;52.138;5.446;2023-08-24T01:05:48;12.05;;;5.95;;
78561;SDS011;68963;52.138;5.446;2023-08-24T01:08:15;11.68;;;6.10;;
78561;SDS011;68963;52.138;5.446;2023-08-24T01:11:10;11.38;;;5.60;;
78561;SDS011;68963;52.138;5.446;2023-08-24T01:13:32;10.25;;;5.63;;
78561;SDS011;68963;52.138;5.446;2023-08-24T01:16:16;10.70;;;6.00;;
78561;SDS011;68963;52.138;5.446;2023-08-24T01:18:47;11.77;;;6.05;;
78561;SDS011;68963;52.138;5.446;2023-08-24T01:21:15;12.27;;;6.03;;
78561;SDS011;68963;52.138;5.446;2023-08-24T01:23:43;11.30;;;5.47;;
78561;SDS011;68963;52.138;5.446;2023-08-24T01:26:18;11.27;;;5.90;;
78561;SDS011;68963;52.138;5.446;2023-08-24T01:28:47;10.00;;;5.68;;
78561;SDS011;68963;52.138;5.446;2023-08-24T01:31:14;9.73;;;5.70;;
78561;SDS011;68963;52.138;5.446;2023-08-24T01:33:45;10.20;;;5.68;;
78561;SDS011;68963;52.138;5.446;2023-08-24T01:36:13;12.48;;;5.82;;
78561;SDS011;68963;52.138;5.446;2023-08-24T01:38:41;13.98;;;6.15;;
78561;SDS011;68963;52.138;5.446;2023-08-24T01:43:37;11.23;;;6.38;;
78561;SDS011;68963;52.138;5.446;2023-08-24T01:46:10;12.63;;;6.50;;
78561;SDS011;68963;52.138;5.446;2023-08-24T01:48:42;13.77;;;6.40;;
78561;SDS011;68963;52.138;5.446;2023-08-24T01:51:10;9.95;;;5.97;;
78561;SDS011;68963;52.138;5.446;2023-08-24T01:56:11;11.93;;;6.30;;
78561;SDS011;68963;52.138;5.446;2023-08-24T01:58:39;13.32;;;6.35;;
78561;SDS011;68963;52.138;5.446;2023-08-24T02:01:06;11.23;;;6.80;;
78561;SDS011;68963;52.138;5.446;2023-08-24T02:06:01;11.82;;;6.65;;
78561;SDS011;68963;52.138;5.446;2023-08-24T02:08:27;12.60;;;6.57;;
78561;SDS011;68963;52.138;5.446;2023-08-24T02:10:54;10.73;;;5.78;;
78561;SDS011;68963;52.138;5.446;2023-08-24T02:13:21;11.27;;;6.18;;
78561;SDS011;68963;52.138;5.446;2023-08-24T02:15:47;10.52;;;6.00;;
78561;SDS011;68963;52.138;5.446;2023-08-24T02:18:14;12.55;;;6.03;;
78561;SDS011;68963;52.138;5.446;2023-08-24T02:20:40;10.75;;;6.03;;
78561;SDS011;68963;52.138;5.446;2023-08-24T02:23:07;11.98;;;6.65;;
78561;SDS011;68963;52.138;5.446;2023-08-24T02:25:34;10.88;;;6.88;;
78561;SDS011;68963;52.138;5.446;2023-08-24T02:28:00;11.32;;;6.35;;
78561;SDS011;68963;52.138;5.446;2023-08-24T02:30:27;11.43;;;7.00;;
78561;SDS011;68963;52.138;5.446;2023-08-24T02:32:53;12.57;;;6.80;;
78561;SDS011;68963;52.138;5.446;2023-08-24T02:35:20;15.02;;;7.68;;
78561;SDS011;68963;52.138;5.446;2023-08-24T02:37:47;12.25;;;7.00;;
78561;SDS011;68963;52.138;5.446;2023-08-24T02:40:15;13.05;;;7.30;;
78561;SDS011;68963;52.138;5.446;2023-08-24T02:42:42;14.65;;;6.97;;
78561;SDS011;68963;52.138;5.446;2023-08-24T02:45:09;14.25;;;7.28;;
78561;SDS011;68963;52.138;5.446;2023-08-24T02:47:36;13.07;;;6.72;;
78561;SDS011;68963;52.138;5.446;2023-08-24T02:50:04;14.05;;;6.63;;
78561;SDS011;68963;52.138;5.446;2023-08-24T02:52:32;13.05;;;6.72;;
78561;SDS011;68963;52.138;5.446;2023-08-24T02:54:58;12.27;;;7.22;;
78561;SDS011;68963;52.138;5.446;2023-08-24T02:57:25;11.68;;;6.75;;
78561;SDS011;68963;52.138;5.446;2023-08-24T02:59:52;11.77;;;6.93;;
78561;SDS011;68963;52.138;5.446;2023-08-24T03:02:18;14.23;;;7.15;;
78561;SDS011;68963;52.138;5.446;2023-08-24T03:04:45;10.98;;;6.75;;
78561;SDS011;68963;52.138;5.446;2023-08-24T03:07:12;14.48;;;7.43;;
78561;SDS011;68963;52.138;5.446;2023-08-24T03:09:38;15.65;;;8.05;;
78561;SDS011;68963;52.138;5.446;2023-08-24T03:12:05;13.38;;;7.20;;
78561;SDS011;68963;52.138;5.446;2023-08-24T03:14:31;14.45;;;8.00;;
78561;SDS011;68963;52.138;5.446;2023-08-24T03:16:58;15.27;;;7.68;;
78561;SDS011;68963;52.138;5.446;2023-08-24T03:19:24;12.40;;;7.32;;
78561;SDS011;68963;52.138;5.446;2023-08-24T03:21:51;16.33;;;7.22;;
78561;SDS011;68963;52.138;5.446;2023-08-24T03:24:17;15.75;;;8.18;;
78561;SDS011;68963;52.138;5.446;2023-08-24T03:26:44;14.35;;;7.68;;
78561;SDS011;68963;52.138;5.446;2023-08-24T03:29:11;18.25;;;8.40;;
78561;SDS011;68963;52.138;5.446;2023-08-24T03:31:37;13.23;;;7.70;;
78561;SDS011;68963;52.138;5.446;2023-08-24T03:34:04;16.73;;;8.10;;
78561;SDS011;68963;52.138;5.446;2023-08-24T03:36:31;17.55;;;8.32;;
78561;SDS011;68963;52.138;5.446;2023-08-24T03:38:57;15.48;;;8.25;;
78561;SDS011;68963;52.138;5.446;2023-08-24T03:41:24;20.80;;;8.27;;
78561;SDS011;68963;52.138;5.446;2023-08-24T03:43:50;16.67;;;8.50;;
78561;SDS011;68963;52.138;5.446;2023-08-24T03:46:17;15.25;;;8.75;;
78561;SDS011;68963;52.138;5.446;2023-08-24T03:48:44;14.95;;;8.48;;
78561;SDS011;68963;52.138;5.446;2023-08-24T03:51:10;16.80;;;8.60;;
78561;SDS011;68963;52.138;5.446;2023-08-24T03:53:37;15.55;;;8.20;;
78561;SDS011;68963;52.138;5.446;2023-08-24T03:56:04;16.08;;;8.63;;
78561;SDS011;68963;52.138;5.446;2023-08-24T03:58:31;16.23;;;8.55;;
78561;SDS011;68963;52.138;5.446;2023-08-24T04:00:57;16.00;;;8.50;;
78561;SDS011;68963;52.138;5.446;2023-08-24T04:03:24;17.77;;;8.27;;
78561;SDS011;68963;52.138;5.446;2023-08-24T04:05:50;14.13;;;8.05;;
78561;SDS011;68963;52.138;5.446;2023-08-24T04:08:17;15.93;;;8.30;;
78561;SDS011;68963;52.138;5.446;2023-08-24T04:10:44;16.90;;;8.68;;
78561;SDS011;68963;52.138;5.446;2023-08-24T04:13:10;16.65;;;8.13;;
78561;SDS011;68963;52.138;5.446;2023-08-24T04:15:37;15.63;;;9.30;;
78561;SDS011;68963;52.138;5.446;2023-08-24T04:18:04;15.90;;;8.80;;
78561;SDS011;68963;52.138;5.446;2023-08-24T04:20:30;15.93;;;8.75;;
78561;SDS011;68963;52.138;5.446;2023-08-24T04:22:57;19.10;;;8.88;;
78561;SDS011;68963;52.138;5.446;2023-08-24T04:25:24;14.88;;;8.48;;
78561;SDS011;68963;52.138;5.446;2023-08-24T04:27:51;15.90;;;9.20;;
78561;SDS011;68963;52.138;5.446;2023-08-24T04:30:18;16.13;;;8.82;;
78561;SDS011;68963;52.138;5.446;2023-08-24T04:32:44;17.52;;;9.07;;
78561;SDS011;68963;52.138;5.446;2023-08-24T04:35:11;17.52;;;8.82;;
78561;SDS011;68963;52.138;5.446;2023-08-24T04:37:37;17.15;;;8.52;;
78561;SDS011;68963;52.138;5.446;2023-08-24T04:40:04;15.05;;;9.07;;
78561;SDS011;68963;52.138;5.446;2023-08-24T04:42:33;13.27;;;7.68;;
78561;SDS011;68963;52.138;5.446;2023-08-24T04:45:00;15.45;;;8.48;;
78561;SDS011;68963;52.138;5.446;2023-08-24T04:47:27;16.25;;;8.80;;
78561;SDS011;68963;52.138;5.446;2023-08-24T04:49:54;18.17;;;9.57;;
78561;SDS011;68963;52.138;5.446;2023-08-24T04:52:20;15.68;;;7.65;;
78561;SDS011;68963;52.138;5.446;2023-08-24T04:54:47;15.07;;;8.07;;
78561;SDS011;68963;52.138;5.446;2023-08-24T04:57:14;14.35;;;8.13;;
78561;SDS011;68963;52.138;5.446;2023-08-24T04:59:40;15.52;;;9.13;;
78561;SDS011;68963;52.138;5.446;2023-08-24T05:02:06;16.00;;;8.00;;
78561;SDS011;68963;52.138;5.446;2023-08-24T05:04:34;16.23;;;8.57;;
78561;SDS011;68963;52.138;5.446;2023-08-24T05:07:00;15.02;;;8.55;;
78561;SDS011;68963;52.138;5.446;2023-08-24T05:09:27;15.85;;;8.63;;
78561;SDS011;68963;52.138;5.446;2023-08-24T05:11:53;18.27;;;9.43;;
78561;SDS011;68963;52.138;5.446;2023-08-24T05:14:20;15.07;;;8.60;;
78561;SDS011;68963;52.138;5.446;2023-08-24T05:16:47;15.13;;;8.35;;
78561;SDS011;68963;52.138;5.446;2023-08-24T05:19:13;14.88;;;8.02;;
78561;SDS011;68963;52.138;5.446;2023-08-24T05:21:40;16.13;;;9.43;;
78561;SDS011;68963;52.138;5.446;2023-08-24T05:24:06;14.52;;;8.45;;
78561;SDS011;68963;52.138;5.446;2023-08-24T05:26:33;20.90;;;8.82;;
78561;SDS011;68963;52.138;5.446;2023-08-24T05:29:00;18.92;;;8.68;;
78561;SDS011;68963;52.138;5.446;2023-08-24T05:31:27;16.15;;;9.18;;
78561;SDS011;68963;52.138;5.446;2023-08-24T05:33:53;17.65;;;8.70;;
78561;SDS011;68963;52.138;5.446;2023-08-24T05:36:20;15.60;;;8.93;;
78561;SDS011;68963;52.138;5.446;2023-08-24T05:38:46;18.20;;;9.23;;
78561;SDS011;68963;52.138;5.446;2023-08-24T05:41:16;21.85;;;9.27;;
78561;SDS011;68963;52.138;5.446;2023-08-24T05:43:42;17.50;;;8.65;;
78561;SDS011;68963;52.138;5.446;2023-08-24T05:46:09;21.35;;;9.00;;
78561;SDS011;68963;52.138;5.446;2023-08-24T05:48:35;16.25;;;8.70;;
78561;SDS011;68963;52.138;5.446;2023-08-24T05:51:02;15.05;;;7.97;;
78561;SDS011;68963;52.138;5.446;2023-08-24T05:53:29;15.65;;;8.45;;
78561;SDS011;68963;52.138;5.446;2023-08-24T05:55:58;15.50;;;8.43;;
78561;SDS011;68963;52.138;5.446;2023-08-24T05:58:25;15.43;;;8.68;;
78561;SDS011;68963;52.138;5.446;2023-08-24T06:01:00;13.13;;;8.20;;
78561;SDS011;68963;52.138;5.446;2023-08-24T06:03:27;14.25;;;8.45;;
78561;SDS011;68963;52.138;5.446;2023-08-24T06:05:54;14.95;;;8.27;;
78561;SDS011;68963;52.138;5.446;2023-08-24T06:08:26;15.55;;;8.20;;
78561;SDS011;68963;52.138;5.446;2023-08-24T06:10:52;15.98;;;8.52;;
78561;SDS011;68963;52.138;5.446;2023-08-24T06:13:19;16.15;;;8.55;;
78561;SDS011;68963;52.138;5.446;2023-08-24T06:15:46;16.65;;;9.07;;
78561;SDS011;68963;52.138;5.446;2023-08-24T06:18:12;17.92;;;9.70;;
78561;SDS011;68963;52.138;5.446;2023-08-24T06:20:40;14.48;;;8.50;;
78561;SDS011;68963;52.138;5.446;2023-08-24T06:23:06;14.63;;;8.50;;
78561;SDS011;68963;52.138;5.446;2023-08-24T06:25:34;18.70;;;9.20;;
78561;SDS011;68963;52.138;5.446;2023-08-24T06:28:01;16.17;;;9.45;;
78561;SDS011;68963;52.138;5.446;2023-08-24T06:30:30;20.83;;;10.23;;
78561;SDS011;68963;52.138;5.446;2023-08-24T06:33:03;15.98;;;10.02;;
78561;SDS011;68963;52.138;5.446;2023-08-24T06:35:30;16.70;;;10.55;;
78561;SDS011;68963;52.138;5.446;2023-08-24T06:37:57;17.73;;;10.50;;
78561;SDS011;68963;52.138;5.446;2023-08-24T06:40:23;17.23;;;10.45;;
78561;SDS011;68963;52.138;5.446;2023-08-24T06:42:50;17.35;;;10.35;;
78561;SDS011;68963;52.138;5.446;2023-08-24T06:45:16;16.38;;;10.18;;
78561;SDS011;68963;52.138;5.446;2023-08-24T06:50:11;15.88;;;9.75;;
78561;SDS011;68963;52.138;5.446;2023-08-24T06:52:38;17.17;;;9.85;;
78561;SDS011;68963;52.138;5.446;2023-08-24T06:55:04;18.42;;;10.18;;
78561;SDS011;68963;52.138;5.446;2023-08-24T06:57:32;17.83;;;10.45;;
78561;SDS011;68963;52.138;5.446;2023-08-24T06:59:58;18.63;;;10.30;;
78561;SDS011;68963;52.138;5.446;2023-08-24T07:02:26;16.63;;;10.93;;
78561;SDS011;68963;52.138;5.446;2023-08-24T07:04:53;19.17;;;11.18;;
78561;SDS011;68963;52.138;5.446;2023-08-24T07:07:19;19.13;;;10.80;;
78561;SDS011;68963;52.138;5.446;2023-08-24T07:09:46;18.85;;;11.45;;
78561;SDS011;68963;52.138;5.446;2023-08-24T07:12:12;19.80;;;11.48;;
78561;SDS011;68963;52.138;5.446;2023-08-24T07:14:39;19.48;;;11.55;;
78561;SDS011;68963;52.138;5.446;2023-08-24T07:17:06;18.98;;;11.65;;
78561;SDS011;68963;52.138;5.446;2023-08-24T07:19:33;18.92;;;11.65;;
78561;SDS011;68963;52.138;5.446;2023-08-24T07:21:59;17.17;;;11.68;;
78561;SDS011;68963;52.138;5.446;2023-08-24T07:24:27;19.25;;;11.15;;
78561;SDS011;68963;52.138;5.446;2023-08-24T07:27:10;19.45;;;12.27;;
78561;SDS011;68963;52.138;5.446;2023-08-24T07:29:37;19.48;;;12.20;;
78561;SDS011;68963;52.138;5.446;2023-08-24T07:32:03;20.45;;;12.20;;
78561;SDS011;68963;52.138;5.446;2023-08-24T07:34:30;18.88;;;12.25;;
78561;SDS011;68963;52.138;5.446;2023-08-24T07:36:57;18.50;;;11.82;;
78561;SDS011;68963;52.138;5.446;2023-08-24T07:39:23;17.23;;;11.65;;
78561;SDS011;68963;52.138;5.446;2023-08-24T07:41:50;18.45;;;11.82;;
78561;SDS011;68963;52.138;5.446;2023-08-24T07:44:16;18.77;;;12.02;;
78561;SDS011;68963;52.138;5.446;2023-08-24T07:46:43;18.60;;;11.85;;
78561;SDS011;68963;52.138;5.446;2023-08-24T07:49:10;19.70;;;11.57;;
78561;SDS011;68963;52.138;5.446;2023-08-24T07:51:36;18.25;;;12.50;;
78561;SDS011;68963;52.138;5.446;2023-08-24T07:54:03;18.75;;;11.90;;
78561;SDS011;68963;52.138;5.446;2023-08-24T07:56:30;20.17;;;11.63;;
78561;SDS011;68963;52.138;5.446;2023-08-24T07:58:57;17.58;;;11.82;;
78561;SDS011;68963;52.138;5.446;2023-08-24T08:01:23;17.40;;;11.60;;
78561;SDS011;68963;52.138;5.446;2023-08-24T08:03:50;21.02;;;12.68;;
78561;SDS011;68963;52.138;5.446;2023-08-24T08:06:17;18.65;;;12.32;;
78561;SDS011;68963;52.138;5.446;2023-08-24T08:08:43;19.75;;;12.27;;
78561;SDS011;68963;52.138;5.446;2023-08-24T08:11:11;19.00;;;12.27;;
78561;SDS011;68963;52.138;5.446;2023-08-24T08:13:38;17.73;;;11.73;;
78561;SDS011;68963;52.138;5.446;2023-08-24T08:16:05;19.40;;;12.38;;
78561;SDS011;68963;52.138;5.446;2023-08-24T08:18:33;16.13;;;11.60;;
78561;SDS011;68963;52.138;5.446;2023-08-24T08:23:28;19.30;;;13.63;;
78561;SDS011;68963;52.138;5.446;2023-08-24T08:25:54;17.75;;;11.65;;
78561;SDS011;68963;52.138;5.446;2023-08-24T08:28:21;18.50;;;11.70;;
78561;SDS011;68963;52.138;5.446;2023-08-24T08:30:48;17.17;;;11.10;;
78561;SDS011;68963;52.138;5.446;2023-08-24T08:35:42;16.10;;;10.77;;
78561;SDS011;68963;52.138;5.446;2023-08-24T08:38:09;18.20;;;11.43;;
78561;SDS011;68963;52.138;5.446;2023-08-24T08:40:36;15.45;;;10.95;;
78561;SDS011;68963;52.138;5.446;2023-08-24T08:43:04;16.08;;;11.05;;
78561;SDS011;68963;52.138;5.446;2023-08-24T08:45:31;15.02;;;10.15;;
78561;SDS011;68963;52.138;5.446;2023-08-24T08:48:00;18.23;;;10.63;;
78561;SDS011;68963;52.138;5.446;2023-08-24T08:50:27;17.65;;;11.75;;
78561;SDS011;68963;52.138;5.446;2023-08-24T08:52:57;18.45;;;10.95;;
78561;SDS011;68963;52.138;5.446;2023-08-24T08:55:24;14.70;;;9.93;;
78561;SDS011;68963;52.138;5.446;2023-08-24T08:57:53;18.70;;;11.30;;
78561;SDS011;68963;52.138;5.446;2023-08-24T09:00:24;17.05;;;10.85;;
78561;SDS011;68963;52.138;5.446;2023-08-24T09:02:52;17.27;;;11.18;;
78561;SDS011;68963;52.138;5.446;2023-08-24T09:05:20;15.45;;;11.07;;
78561;SDS011;68963;52.138;5.446;2023-08-24T09:07:47;16.38;;;11.13;;
78561;SDS011;68963;52.138;5.446;2023-08-24T09:10:15;16.38;;;10.32;;
78561;SDS011;68963;52.138;5.446;2023-08-24T09:12:41;19.95;;;11.18;;
78561;SDS011;68963;52.138;5.446;2023-08-24T09:15:08;17.63;;;10.15;;
78561;SDS011;68963;52.138;5.446;2023-08-24T09:17:35;17.65;;;10.43;;
78561;SDS011;68963;52.138;5.446;2023-08-24T09:20:08;16.48;;;10.38;;
78561;SDS011;68963;52.138;5.446;2023-08-24T09:22:36;16.08;;;10.43;;
78561;SDS011;68963;52.138;5.446;2023-08-24T09:25:04;14.23;;;10.13;;
78561;SDS011;68963;52.138;5.446;2023-08-24T09:27:32;17.17;;;11.80;;
78561;SDS011;68963;52.138;5.446;2023-08-24T09:30:00;15.05;;;10.32;;
78561;SDS011;68963;52.138;5.446;2023-08-24T09:32:27;15.25;;;9.25;;
78561;SDS011;68963;52.138;5.446;2023-08-24T09:34:55;15.43;;;10.10;;
78561;SDS011;68963;52.138;5.446;2023-08-24T09:37:22;15.38;;;9.93;;
78561;SDS011;68963;52.138;5.446;2023-08-24T09:39:49;15.75;;;10.30;;
78561;SDS011;68963;52.138;5.446;2023-08-24T09:42:26;14.32;;;9.27;;
78561;SDS011;68963;52.138;5.446;2023-08-24T09:44:55;16.92;;;10.05;;
78561;SDS011;68963;52.138;5.446;2023-08-24T09:47:30;15.80;;;9.65;;
78561;SDS011;68963;52.138;5.446;2023-08-24T09:49:57;15.48;;;10.05;;
78561;SDS011;68963;52.138;5.446;2023-08-24T09:52:23;14.63;;;9.98;;
78561;SDS011;68963;52.138;5.446;2023-08-24T09:54:57;15.00;;;9.35;;
78561;SDS011;68963;52.138;5.446;2023-08-24T09:57:31;16.17;;;9.18;;
78561;SDS011;68963;52.138;5.446;2023-08-24T10:00:02;15.57;;;10.27;;
78561;SDS011;68963;52.138;5.446;2023-08-24T10:02:37;16.23;;;9.68;;
78561;SDS011;68963;52.138;5.446;2023-08-24T10:05:16;17.38;;;9.60;;
78561;SDS011;68963;52.138;5.446;2023-08-24T10:08:04;13.70;;;9.43;;
78561;SDS011;68963;52.138;5.446;2023-08-24T10:10:34;14.88;;;9.13;;
78561;SDS011;68963;52.138;5.446;2023-08-24T10:13:07;13.38;;;8.52;;
78561;SDS011;68963;52.138;5.446;2023-08-24T10:15:40;16.83;;;9.48;;
78561;SDS011;68963;52.138;5.446;2023-08-24T10:18:13;13.05;;;8.77;;
78561;SDS011;68963;52.138;5.446;2023-08-24T10:20:41;15.05;;;8.48;;
78561;SDS011;68963;52.138;5.446;2023-08-24T10:23:10;12.80;;;8.50;;
78561;SDS011;68963;52.138;5.446;2023-08-24T10:25:38;15.18;;;8.85;;
78561;SDS011;68963;52.138;5.446;2023-08-24T10:28:08;14.57;;;8.13;;
78561;SDS011;68963;52.138;5.446;2023-08-24T10:30:38;13.20;;;8.48;;
78561;SDS011;68963;52.138;5.446;2023-08-24T10:35:32;15.60;;;8.85;;
78561;SDS011;68963;52.138;5.446;2023-08-24T10:37:59;14.75;;;8.30;;
78561;SDS011;68963;52.138;5.446;2023-08-24T10:40:32;13.88;;;8.77;;
78561;SDS011;68963;52.138;5.446;2023-08-24T10:43:06;15.13;;;10.15;;
78561;SDS011;68963;52.138;5.446;2023-08-24T10:48:23;17.33;;;9.55;;
78561;SDS011;68963;52.138;5.446;2023-08-24T10:54:14;16.67;;;10.25;;
78561;SDS011;68963;52.138;5.446;2023-08-24T10:56:36;16.15;;;10.05;;
78561;SDS011;68963;52.138;5.446;2023-08-24T10:59:14;19.25;;;11.35;;
78561;SDS011;68963;52.138;5.446;2023-08-24T11:01:54;15.80;;;10.60;;
78561;SDS011;68963;52.138;5.446;2023-08-24T11:04:22;16.63;;;12.27;;
78561;SDS011;68963;52.138;5.446;2023-08-24T11:06:55;18.52;;;11.93;;
78561;SDS011;68963;52.138;5.446;2023-08-24T11:09:23;19.60;;;12.77;;
78561;SDS011;68963;52.138;5.446;2023-08-24T11:11:57;19.08;;;13.73;;
78561;SDS011;68963;52.138;5.446;2023-08-24T11:14:25;21.20;;;13.73;;
78561;SDS011;68963;52.138;5.446;2023-08-24T11:16:53;21.23;;;14.90;;
78561;SDS011;68963;52.138;5.446;2023-08-24T11:19:22;20.08;;;13.65;;
78561;SDS011;68963;52.138;5.446;2023-08-24T11:21:50;21.85;;;14.00;;
78561;SDS011;68963;52.138;5.446;2023-08-24T11:24:17;19.52;;;13.55;;
78561;SDS011;68963;52.138;5.446;2023-08-24T11:26:47;21.15;;;13.70;;
78561;SDS011;68963;52.138;5.446;2023-08-24T11:29:14;17.40;;;12.75;;
78561;SDS011;68963;52.138;5.446;2023-08-24T11:31:41;23.98;;;14.00;;
78561;SDS011;68963;52.138;5.446;2023-08-24T11:34:14;23.17;;;13.25;;
78561;SDS011;68963;52.138;5.446;2023-08-24T11:36:46;18.38;;;12.90;;
78561;SDS011;68963;52.138;5.446;2023-08-24T11:41:56;22.95;;;13.20;;
78561;SDS011;68963;52.138;5.446;2023-08-24T11:44:24;19.10;;;12.95;;
78561;SDS011;68963;52.138;5.446;2023-08-24T11:46:58;19.58;;;13.20;;
78561;SDS011;68963;52.138;5.446;2023-08-24T11:49:25;18.50;;;13.23;;
78561;SDS011;68963;52.138;5.446;2023-08-24T11:51:53;18.90;;;12.80;;
78561;SDS011;68963;52.138;5.446;2023-08-24T11:54:20;21.88;;;13.00;;
78561;SDS011;68963;52.138;5.446;2023-08-24T11:56:47;18.92;;;13.32;;
78561;SDS011;68963;52.138;5.446;2023-08-24T11:59:14;20.48;;;13.18;;
78561;SDS011;68963;52.138;5.446;2023-08-24T12:01:41;19.20;;;13.88;;
78561;SDS011;68963;52.138;5.446;2023-08-24T12:04:08;19.83;;;14.05;;
78561;SDS011;68963;52.138;5.446;2023-08-24T12:06:35;19.30;;;14.35;;
78561;SDS011;68963;52.138;5.446;2023-08-24T12:09:04;20.25;;;14.05;;
78561;SDS011;68963;52.138;5.446;2023-08-24T12:11:35;21.40;;;14.23;;
78561;SDS011;68963;52.138;5.446;2023-08-24T12:14:05;17.00;;;13.02;;
78561;SDS011;68963;52.138;5.446;2023-08-24T12:16:36;20.95;;;12.73;;
78561;SDS011;68963;52.138;5.446;2023-08-24T12:19:06;15.93;;;12.50;;
78561;SDS011;68963;52.138;5.446;2023-08-24T12:21:33;21.90;;;14.77;;
78561;SDS011;68963;52.138;5.446;2023-08-24T12:24:06;23.52;;;13.88;;
78561;SDS011;68963;52.138;5.446;2023-08-24T12:26:34;20.50;;;12.75;;
78561;SDS011;68963;52.138;5.446;2023-08-24T12:29:03;20.08;;;13.57;;
78561;SDS011;68963;52.138;5.446;2023-08-24T12:31:34;21.30;;;13.32;;
78561;SDS011;68963;52.138;5.446;2023-08-24T12:34:02;18.80;;;13.75;;
78561;SDS011;68963;52.138;5.446;2023-08-24T12:36:36;20.20;;;14.80;;
78561;SDS011;68963;52.138;5.446;2023-08-24T12:39:04;19.15;;;14.25;;
78561;SDS011;68963;52.138;5.446;2023-08-24T12:41:33;21.42;;;14.25;;
78561;SDS011;68963;52.138;5.446;2023-08-24T12:44:00;23.65;;;14.07;;
78561;SDS011;68963;52.138;5.446;2023-08-24T12:46:32;21.10;;;14.35;;
78561;SDS011;68963;52.138;5.446;2023-08-24T12:48:59;18.83;;;14.30;;
78561;SDS011;68963;52.138;5.446;2023-08-24T12:51:26;21.33;;;14.27;;
78561;SDS011;68963;52.138;5.446;2023-08-24T12:53:52;19.27;;;13.98;;
78561;SDS011;68963;52.138;5.446;2023-08-24T12:56:19;24.85;;;15.32;;
78561;SDS011;68963;52.138;5.446;2023-08-24T12:58:45;20.02;;;14.45;;
78561;SDS011;68963;52.138;5.446;2023-08-24T13:01:12;19.63;;;13.77;;
78561;SDS011;68963;52.138;5.446;2023-08-24T13:03:38;20.13;;;13.80;;
78561;SDS011;68963;52.138;5.446;2023-08-24T13:06:06;19.15;;;13.30;;
78561;SDS011;68963;52.138;5.446;2023-08-24T13:08:49;19.90;;;13.73;;
78561;SDS011;68963;52.138;5.446;2023-08-24T13:11:16;18.23;;;12.35;;
78561;SDS011;68963;52.138;5.446;2023-08-24T13:13:43;17.23;;;12.13;;
78561;SDS011;68963;52.138;5.446;2023-08-24T13:16:11;19.85;;;13.05;;
78561;SDS011;68963;52.138;5.446;2023-08-24T13:18:38;19.60;;;11.68;;
78561;SDS011;68963;52.138;5.446;2023-08-24T13:21:05;19.48;;;11.60;;
78561;SDS011;68963;52.138;5.446;2023-08-24T13:23:31;17.13;;;11.15;;
78561;SDS011;68963;52.138;5.446;2023-08-24T13:25:59;15.82;;;11.40;;
78561;SDS011;68963;52.138;5.446;2023-08-24T13:28:26;17.85;;;10.93;;
78561;SDS011;68963;52.138;5.446;2023-08-24T13:33:20;17.55;;;11.43;;
78561;SDS011;68963;52.138;5.446;2023-08-24T13:35:47;16.23;;;11.23;;
78561;SDS011;68963;52.138;5.446;2023-08-24T13:38:14;16.38;;;10.85;;
78561;SDS011;68963;52.138;5.446;2023-08-24T13:40:40;18.55;;;12.50;;
78561;SDS011;68963;52.138;5.446;2023-08-24T13:43:07;22.10;;;13.35;;
78561;SDS011;68963;52.138;5.446;2023-08-24T13:45:33;20.55;;;13.25;;
78561;SDS011;68963;52.138;5.446;2023-08-24T13:48:01;18.77;;;11.82;;
78561;SDS011;68963;52.138;5.446;2023-08-24T13:50:28;20.20;;;12.90;;
78561;SDS011;68963;52.138;5.446;2023-08-24T13:52:55;16.67;;;11.82;;
78561;SDS011;68963;52.138;5.446;2023-08-24T13:55:22;16.92;;;12.07;;
78561;SDS011;68963;52.138;5.446;2023-08-24T13:57:49;20.15;;;13.48;;
78561;SDS011;68963;52.138;5.446;2023-08-24T14:00:16;18.27;;;12.35;;
78561;SDS011;68963;52.138;5.446;2023-08-24T14:02:43;18.40;;;12.98;;
78561;SDS011;68963;52.138;5.446;2023-08-24T14:05:11;20.27;;;14.25;;
78561;SDS011;68963;52.138;5.446;2023-08-24T14:07:39;20.65;;;14.57;;
78561;SDS011;68963;52.138;5.446;2023-08-24T14:10:05;22.83;;;15.25;;
78561;SDS011;68963;52.138;5.446;2023-08-24T14:12:34;23.52;;;15.80;;
78561;SDS011;68963;52.138;5.446;2023-08-24T14:15:00;19.27;;;14.80;;
78561;SDS011;68963;52.138;5.446;2023-08-24T14:17:27;21.88;;;15.55;;
78561;SDS011;68963;52.138;5.446;2023-08-24T14:19:54;24.45;;;16.00;;
78561;SDS011;68963;52.138;5.446;2023-08-24T14:22:20;25.60;;;16.45;;
78561;SDS011;68963;52.138;5.446;2023-08-24T14:24:47;23.23;;;16.38;;
78561;SDS011;68963;52.138;5.446;2023-08-24T14:27:14;23.73;;;16.58;;
78561;SDS011;68963;52.138;5.446;2023-08-24T14:29:40;21.85;;;17.25;;
78561;SDS011;68963;52.138;5.446;2023-08-24T14:32:07;25.92;;;17.92;;
78561;SDS011;68963;52.138;5.446;2023-08-24T14:34:33;24.63;;;18.75;;
78561;SDS011;68963;52.138;5.446;2023-08-24T14:37:00;24.98;;;20.02;;
78561;SDS011;68963;52.138;5.446;2023-08-24T14:39:27;27.08;;;19.83;;
78561;SDS011;68963;52.138;5.446;2023-08-24T14:41:53;26.85;;;20.20;;
78561;SDS011;68963;52.138;5.446;2023-08-24T14:44:20;33.35;;;19.95;;
78561;SDS011;68963;52.138;5.446;2023-08-24T14:46:46;25.25;;;19.70;;
78561;SDS011;68963;52.138;5.446;2023-08-24T14:49:13;25.80;;;20.17;;
78561;SDS011;68963;52.138;5.446;2023-08-24T14:51:45;27.00;;;18.55;;
78561;SDS011;68963;52.138;5.446;2023-08-24T14:54:12;23.15;;;17.17;;
78561;SDS011;68963;52.138;5.446;2023-08-24T14:56:40;23.52;;;17.50;;
78561;SDS011;68963;52.138;5.446;2023-08-24T14:59:07;24.02;;;16.05;;
78561;SDS011;68963;52.138;5.446;2023-08-24T15:01:34;22.55;;;15.52;;